Time;durP1;ratioP1;P1;durP2;ratioP2;P2;SDS_P1;SDS_P2;PMS_P1;PMS_P2;Temp;Humidity;BMP_temperature;BMP_pressure;BME280_temperature;BME280_humidity;BME280_pressure;Samples;Min_cycle;Max_cycle;Signal;HPM_P1;HPM_P2
2021/10/10 00:00:24;;;;;;;21.08;12.13;;;;;;;11.30;45.66;101483.06;3390293;29;20079;-75
2021/10/10 00:02:04;;;;;;;26.58;11.77;;;;;;;11.32;45.77;101478.41;3390280;29;20044;-75
2021/10/10 00:03:45;;;;;;;19.10;11.02;;;;;;;11.34;45.75;101479.09;3390584;29;20044;-75
2021/10/10 00:05:25;;;;;;;26.98;14.60;;;;;;;11.30;45.78;101475.03;3390534;29;20044;-78
2021/10/10 00:07:06;;;;;;;23.90;10.80;;;;;;;11.24;45.63;101475.69;3390398;29;20052;-77
2021/10/10 00:08:47;;;;;;;18.35;11.18;;;;;;;11.21;45.65;101472.50;3390326;29;20051;-79
2021/10/10 00:10:27;;;;;;;25.20;12.57;;;;;;;11.17;45.80;101473.78;3390615;29;20492;-77
2021/10/10 00:12:08;;;;;;;20.90;12.82;;;;;;;11.09;45.79;101479.88;3390304;29;20072;-76
2021/10/10 00:13:50;;;;;;;19.80;11.70;;;;;;;11.00;46.17;101479.00;3390103;29;20044;-76
2021/10/10 00:15:30;;;;;;;26.35;12.02;;;;;;;10.97;46.06;101479.31;3390313;29;20071;-75
2021/10/10 00:17:11;;;;;;;23.52;12.90;;;;;;;10.91;46.23;101469.22;3390384;29;20154;-76
2021/10/10 00:18:52;;;;;;;31.77;12.35;;;;;;;10.87;46.15;101470.53;3389706;29;20095;-75
2021/10/10 00:20:32;;;;;;;28.38;11.77;;;;;;;10.86;46.32;101466.19;3390388;29;20043;-75
2021/10/10 00:22:13;;;;;;;19.25;11.98;;;;;;;10.88;46.29;101469.53;3390019;29;20083;-75
2021/10/10 00:23:54;;;;;;;26.20;12.50;;;;;;;10.86;46.35;101461.66;3390086;29;20052;-75
2021/10/10 00:25:34;;;;;;;19.52;12.18;;;;;;;10.78;46.19;101461.59;3390177;29;20047;-77
2021/10/10 00:27:15;;;;;;;25.48;13.00;;;;;;;10.77;46.26;101465.28;3390274;29;20047;-76
2021/10/10 00:28:56;;;;;;;24.42;12.00;;;;;;;10.70;46.73;101461.53;3389163;29;20043;-75
2021/10/10 00:30:37;;;;;;;26.65;12.43;;;;;;;10.74;46.54;101472.72;3389852;29;20052;-76
2021/10/10 00:32:17;;;;;;;21.90;12.50;;;;;;;10.77;46.59;101469.78;3390075;29;20527;-76
2021/10/10 00:33:58;;;;;;;27.70;12.32;;;;;;;10.78;46.45;101466.94;3390139;29;20052;-76
2021/10/10 00:35:39;;;;;;;26.50;12.02;;;;;;;10.82;46.12;101462.97;3389962;29;20043;-75
2021/10/10 00:37:19;;;;;;;24.08;11.80;;;;;;;10.87;46.19;101462.53;3390059;29;20036;-74
2021/10/10 00:39:00;;;;;;;32.50;13.32;;;;;;;10.87;46.25;101467.88;3389914;29;20887;-75
2021/10/10 00:40:41;;;;;;;35.10;13.23;;;;;;;10.85;46.14;101468.00;3388994;29;20120;-75
2021/10/10 00:42:22;;;;;;;23.30;12.90;;;;;;;10.84;46.38;101463.69;3389648;29;20043;-75
2021/10/10 00:44:08;;;;;;;20.98;11.98;;;;;;;10.86;46.41;101463.50;3389993;29;20492;-76
2021/10/10 00:45:50;;;;;;;19.20;11.88;;;;;;;10.87;46.27;101465.19;3389868;29;20507;-75
2021/10/10 00:47:31;;;;;;;29.95;13.32;;;;;;;10.86;46.13;101464.34;3390016;29;20055;-75
2021/10/10 00:49:11;;;;;;;27.60;12.65;;;;;;;10.89;46.25;101465.88;3389793;29;20052;-76
2021/10/10 00:50:52;;;;;;;25.58;11.82;;;;;;;10.88;46.14;101456.19;3389753;29;20630;-75
2021/10/10 00:52:36;;;;;;;25.02;13.73;;;;;;;10.91;46.25;101464.72;3389802;29;20071;-77
2021/10/10 00:54:18;;;;;;;28.02;11.95;;;;;;;10.93;46.53;101469.91;3388634;29;20150;-75
2021/10/10 00:56:00;;;;;;;30.25;12.20;;;;;;;10.95;46.29;101464.44;3389834;29;20044;-73
2021/10/10 00:57:48;;;;;;;26.00;13.68;;;;;;;10.96;46.18;101463.44;3389869;29;20044;-76
2021/10/10 00:59:29;;;;;;;24.38;11.52;;;;;;;10.94;45.97;101460.91;3389596;29;20052;-76
2021/10/10 01:01:09;;;;;;;23.02;10.48;;;;;;;10.98;46.25;101466.78;3388074;29;20050;-76
2021/10/10 01:02:55;;;;;;;21.40;10.85;;;;;;;11.03;46.35;101468.00;3389459;29;20092;-76
2021/10/10 01:04:36;;;;;;;19.30;10.88;;;;;;;11.12;46.47;101461.72;3389773;29;20044;-76
2021/10/10 01:06:16;;;;;;;23.13;12.98;;;;;;;11.20;46.24;101466.28;3389700;29;20058;-74
2021/10/10 01:07:57;;;;;;;19.33;11.57;;;;;;;11.22;46.09;101460.81;3388444;29;20060;-76
2021/10/10 01:09:38;;;;;;;24.80;12.45;;;;;;;11.20;46.02;101473.47;3386021;29;20055;-75
2021/10/10 01:11:19;;;;;;;24.65;11.02;;;;;;;11.06;46.00;101461.53;3385980;29;20048;-76
2021/10/10 01:13:00;;;;;;;27.45;12.57;;;;;;;11.01;46.18;101472.66;3389569;29;20076;-75
2021/10/10 01:14:40;;;;;;;22.48;11.23;;;;;;;10.97;46.39;101473.09;3389845;29;20039;-75
2021/10/10 01:16:21;;;;;;;22.52;11.63;;;;;;;10.85;46.68;101465.34;3389490;29;20527;-77
2021/10/10 01:18:02;;;;;;;25.05;11.82;;;;;;;10.83;46.62;101469.97;3389649;29;20120;-77
2021/10/10 01:19:44;;;;;;;20.75;12.60;;;;;;;10.82;46.70;101454.97;3389635;29;20044;-75
2021/10/10 01:21:25;;;;;;;20.27;11.55;;;;;;;10.79;46.55;101471.28;3389424;29;20204;-74
2021/10/10 01:23:06;;;;;;;26.83;11.30;;;;;;;10.75;46.89;101469.06;3389797;29;20064;-76
2021/10/10 01:24:47;;;;;;;22.30;12.07;;;;;;;10.69;46.76;101465.19;3389343;29;20393;-76
2021/10/10 01:26:28;;;;;;;28.83;12.60;;;;;;;10.66;46.76;101460.13;3388586;29;20988;-75
2021/10/10 01:28:09;;;;;;;27.88;13.15;;;;;;;10.64;46.88;101472.81;3389277;29;20351;-75
2021/10/10 01:29:49;;;;;;;23.52;12.07;;;;;;;10.62;47.37;101470.28;3389516;29;20206;-76
2021/10/10 01:31:30;;;;;;;23.80;13.02;;;;;;;10.54;47.43;101461.38;3389719;29;20044;-77
2021/10/10 01:33:14;;;;;;;23.25;12.95;;;;;;;10.58;47.45;101462.72;3389702;29;20032;-75
2021/10/10 01:34:54;;;;;;;23.00;13.05;;;;;;;10.62;47.21;101458.78;3388337;29;20056;-76
2021/10/10 01:36:38;;;;;;;25.13;11.35;;;;;;;10.56;47.19;101448.69;3375250;29;20036;-76
2021/10/10 01:38:19;;;;;;;21.05;11.88;;;;;;;10.58;47.08;101441.41;3383694;29;20087;-78
2021/10/10 01:40:00;;;;;;;20.60;12.80;;;;;;;10.75;47.13;101459.25;3385755;29;20563;-76
2021/10/10 01:41:41;;;;;;;20.40;11.60;;;;;;;10.77;46.88;101459.09;3386002;29;20134;-77
2021/10/10 01:43:21;;;;;;;25.45;11.57;;;;;;;10.77;47.12;101459.94;3388814;29;20515;-75
2021/10/10 01:45:03;;;;;;;21.58;11.98;;;;;;;10.80;46.75;101456.97;3389110;29;20507;-76
2021/10/10 01:46:44;;;;;;;23.83;12.55;;;;;;;10.85;46.62;101459.19;3388092;29;20483;-77
2021/10/10 01:48:24;;;;;;;22.90;10.70;;;;;;;10.81;46.80;101463.97;3372632;29;20040;-75
2021/10/10 01:50:05;;;;;;;19.85;10.77;;;;;;;10.82;47.21;101454.97;3386571;29;20495;-75
2021/10/10 01:51:46;;;;;;;21.65;11.80;;;;;;;10.87;47.12;101455.38;3388854;29;20044;-76
2021/10/10 01:53:27;;;;;;;19.02;12.65;;;;;;;10.88;47.07;101454.34;3389068;29;20036;-77
2021/10/10 01:55:08;;;;;;;23.85;12.10;;;;;;;10.91;47.04;101463.88;3389171;29;20464;-76
2021/10/10 01:56:49;;;;;;;22.15;12.77;;;;;;;10.87;46.80;101458.03;3388676;29;20047;-75
2021/10/10 01:58:30;;;;;;;20.80;11.60;;;;;;;10.81;47.27;101463.97;3389104;29;20499;-76
2021/10/10 02:00:11;;;;;;;26.65;12.60;;;;;;;10.78;47.25;101466.09;3388947;29;20044;-77
2021/10/10 02:01:55;;;;;;;19.63;12.38;;;;;;;10.73;47.29;101471.88;3388012;29;20495;-74
2021/10/10 02:03:36;;;;;;;25.75;11.52;;;;;;;10.68;47.22;101468.84;3385114;29;20040;-74
2021/10/10 02:05:17;;;;;;;26.58;13.40;;;;;;;10.64;47.10;101468.31;3388696;29;20100;-74
2021/10/10 02:06:57;;;;;;;19.58;12.35;;;;;;;10.64;47.27;101473.63;3388823;29;20056;-74
2021/10/10 02:08:38;;;;;;;19.42;11.18;;;;;;;10.66;47.18;101469.00;3389058;29;20047;-76
2021/10/10 02:10:19;;;;;;;21.17;10.90;;;;;;;10.73;47.09;101469.22;3388905;29;20059;-77
2021/10/10 02:12:00;;;;;;;18.35;11.52;;;;;;;10.79;47.18;101462.44;3388326;29;20040;-77
2021/10/10 02:13:41;;;;;;;21.30;10.55;;;;;;;10.83;47.09;101469.97;3388375;29;20044;-77
2021/10/10 02:15:22;;;;;;;17.13;10.93;;;;;;;10.84;47.04;101469.00;3388954;29;20440;-77
2021/10/10 02:17:03;;;;;;;18.58;11.55;;;;;;;10.78;46.79;101456.25;3389178;29;20184;-76
2021/10/10 02:18:45;;;;;;;22.15;11.55;;;;;;;10.80;47.03;101467.63;3400513;29;20044;-77
2021/10/10 02:20:25;;;;;;;15.05;10.85;;;;;;;10.80;47.03;101470.28;3391170;29;20052;-76
2021/10/10 02:22:06;;;;;;;18.00;10.95;;;;;;;10.79;46.94;101460.63;3388816;29;20040;-74
2021/10/10 02:23:47;;;;;;;18.90;11.55;;;;;;;10.78;46.97;101466.94;3388620;29;20048;-75
2021/10/10 02:25:31;;;;;;;25.83;11.13;;;;;;;10.79;47.01;101463.28;3387894;29;20089;-76
2021/10/10 02:27:12;;;;;;;23.75;11.65;;;;;;;10.77;46.96;101457.28;3385447;29;20199;-75
2021/10/10 02:28:53;;;;;;;18.60;11.18;;;;;;;10.73;46.70;101458.56;3388547;29;20048;-75
2021/10/10 02:30:33;;;;;;;17.52;12.63;;;;;;;10.68;46.89;101455.50;3388753;29;20579;-75
2021/10/10 02:32:14;;;;;;;18.67;11.00;;;;;;;10.65;47.04;101463.81;3388626;29;20040;-75
2021/10/10 02:33:55;;;;;;;21.55;12.20;;;;;;;10.58;47.17;101457.41;3388902;29;20108;-77
2021/10/10 02:35:35;;;;;;;18.95;12.05;;;;;;;10.57;46.98;101458.41;3387632;29;20040;-76
2021/10/10 02:37:16;;;;;;;19.67;11.73;;;;;;;10.55;47.49;101465.69;3387981;29;20044;-76
2021/10/10 02:38:56;;;;;;;17.02;10.70;;;;;;;10.54;47.79;101466.69;3387514;29;20108;-75
2021/10/10 02:40:38;;;;;;;17.60;11.95;;;;;;;10.51;47.62;101464.31;3388588;29;20529;-75
2021/10/10 02:42:18;;;;;;;23.25;11.50;;;;;;;10.51;47.67;101469.63;3388455;29;20107;-75
2021/10/10 02:43:59;;;;;;;27.75;11.43;;;;;;;10.48;47.41;101463.66;3388552;29;20496;-74
2021/10/10 02:45:40;;;;;;;17.35;10.82;;;;;;;10.48;47.52;101476.97;3388552;29;20044;-76
2021/10/10 02:47:21;;;;;;;17.95;10.95;;;;;;;10.48;47.39;101468.97;3387285;29;20535;-73
2021/10/10 02:49:02;;;;;;;19.92;12.40;;;;;;;10.46;47.33;101473.63;3388204;29;20130;-75
2021/10/10 02:50:43;;;;;;;17.10;10.85;;;;;;;10.44;47.20;101462.25;3388337;29;20052;-74
2021/10/10 02:52:24;;;;;;;21.88;11.93;;;;;;;10.45;47.45;101463.94;3388479;29;20067;-74
2021/10/10 02:54:05;;;;;;;22.42;11.90;;;;;;;10.45;47.57;101469.28;3388373;29;20043;-74
2021/10/10 02:55:47;;;;;;;;;;;;;;;10.55;47.23;101463.88;3388758;29;20052;-75
2021/10/10 02:57:27;;;;;;;18.40;10.68;;;;;;;10.46;47.46;101460.28;3388574;29;20032;-77
2021/10/10 02:59:08;;;;;;;19.58;11.90;;;;;;;10.40;47.83;101460.91;3388370;29;20451;-74
2021/10/10 03:00:49;;;;;;;15.65;10.82;;;;;;;10.36;47.79;101459.50;3387317;29;20052;-74
2021/10/10 03:02:29;;;;;;;20.98;12.50;;;;;;;10.37;47.41;101461.16;3388471;29;20052;-76
2021/10/10 03:04:10;;;;;;;18.55;11.68;;;;;;;10.36;47.89;101464.84;3387531;29;20067;-75
2021/10/10 03:05:51;;;;;;;20.08;11.60;;;;;;;10.33;47.68;101462.47;3388124;29;20099;-76
2021/10/10 03:07:31;;;;;;;16.33;10.75;;;;;;;10.36;47.71;101464.84;3387150;29;20055;-77
2021/10/10 03:09:12;;;;;;;16.52;10.70;;;;;;;10.31;47.85;101456.44;3388373;29;20131;-75
2021/10/10 03:10:53;;;;;;;17.88;10.63;;;;;;;10.34;48.00;101455.31;3388329;29;20040;-74
2021/10/10 03:12:33;;;;;;;19.45;11.25;;;;;;;10.35;47.95;101463.16;3388171;29;20044;-75
2021/10/10 03:14:14;;;;;;;18.23;10.95;;;;;;;10.34;48.00;101468.63;3388289;29;20044;-75
2021/10/10 03:15:56;;;;;;;17.27;10.73;;;;;;;10.34;48.03;101465.97;3388597;29;20047;-75
2021/10/10 03:17:36;;;;;;;19.50;11.57;;;;;;;10.35;47.74;101456.97;3388592;29;20047;-77
2021/10/10 03:19:17;;;;;;;18.17;11.73;;;;;;;10.35;47.97;101457.84;3388724;29;20471;-76
2021/10/10 03:20:58;;;;;;;18.40;11.18;;;;;;;10.37;48.03;101460.34;3389069;29;20123;-75
2021/10/10 03:22:38;;;;;;;19.33;10.35;;;;;;;10.37;47.99;101460.34;3388704;29;20055;-74
2021/10/10 03:24:19;;;;;;;18.90;10.98;;;;;;;10.38;47.89;101467.38;3388474;29;20071;-77
2021/10/10 03:25:59;;;;;;;15.45;10.68;;;;;;;10.39;47.92;101456.53;3391403;29;20059;-76
2021/10/10 03:27:40;;;;;;;21.85;12.55;;;;;;;10.38;47.90;101456.69;3390948;29;20531;-74
2021/10/10 03:29:21;;;;;;;18.35;10.60;;;;;;;10.37;47.80;101460.34;3389635;29;20044;-76
2021/10/10 03:31:03;;;;;;;20.70;10.95;;;;;;;10.36;47.95;101451.50;3390908;29;20036;-76
2021/10/10 03:32:43;;;;;;;18.38;11.82;;;;;;;10.41;47.75;101454.56;3390835;29;20040;-76
2021/10/10 03:34:24;;;;;;;16.80;9.85;;;;;;;10.50;47.86;101459.97;3390826;29;20587;-74
2021/10/10 03:36:06;;;;;;;18.73;11.45;;;;;;;10.52;47.71;101450.84;3390802;29;20092;-76
2021/10/10 03:37:46;;;;;;;14.18;9.93;;;;;;;10.52;47.75;101445.50;3390711;29;20040;-75
2021/10/10 03:39:27;;;;;;;21.35;11.40;;;;;;;10.53;47.77;101452.50;3390597;29;20040;-76
2021/10/10 03:41:08;;;;;;;18.10;11.10;;;;;;;10.48;47.78;101446.81;3390811;29;20044;-76
2021/10/10 03:42:49;;;;;;;20.48;11.45;;;;;;;10.40;47.80;101447.56;3389657;29;20107;-77
2021/10/10 03:44:30;;;;;;;15.63;9.63;;;;;;;10.41;47.67;101446.56;3390481;29;20050;-75
2021/10/10 03:46:10;;;;;;;17.80;10.82;;;;;;;10.41;47.78;101451.91;3390497;29;20127;-75
2021/10/10 03:47:51;;;;;;;17.08;10.77;;;;;;;10.39;47.75;101443.22;3390490;29;20131;-75
2021/10/10 03:49:33;;;;;;;19.23;10.30;;;;;;;10.43;47.78;101449.09;3389524;29;20079;-76
2021/10/10 03:51:13;;;;;;;17.00;11.50;;;;;;;10.43;47.85;101449.09;3390317;29;20052;-74
2021/10/10 03:52:54;;;;;;;22.88;11.48;;;;;;;10.41;47.99;101448.41;3390658;29;20044;-76
2021/10/10 03:55:15;;;;;;;20.55;10.05;;;;;;;10.40;48.17;101444.91;3390452;29;20052;-76
2021/10/10 03:56:36;;;;;;;21.27;11.60;;;;;;;10.41;48.07;101448.41;3389931;29;20058;-75
2021/10/10 03:58:17;;;;;;;18.70;12.13;;;;;;;10.39;48.00;101448.53;3390466;29;20040;-76
2021/10/10 04:00:06;;;;;;;20.77;12.45;;;;;;;10.39;47.69;101445.88;3390404;29;20043;-76
2021/10/10 04:01:52;;;;;;;18.77;12.32;;;;;;;10.34;47.54;101449.97;3390297;29;20040;-77
2021/10/10 04:03:33;;;;;;;19.98;11.63;;;;;;;10.31;48.18;101440.47;3390515;29;20051;-75
2021/10/10 04:07:15;;;;;;;23.90;12.50;;;;;;;10.25;47.93;101433.88;3389989;29;20066;-76
2021/10/10 04:08:55;;;;;;;21.10;11.20;;;;;;;10.26;48.26;101448.88;3389305;29;20103;-75
2021/10/10 04:10:36;;;;;;;18.58;10.85;;;;;;;10.26;48.28;101443.53;3390122;29;20508;-76
2021/10/10 04:12:17;;;;;;;17.58;10.70;;;;;;;10.36;48.34;101442.69;3390053;29;20044;-77
2021/10/10 04:13:58;;;;;;;15.52;11.35;;;;;;;10.39;48.10;101443.22;3389474;29;20055;-77
2021/10/10 04:15:38;;;;;;;17.42;11.93;;;;;;;10.40;48.26;101450.22;3399894;29;20048;-77
2021/10/10 04:17:19;;;;;;;17.75;11.98;;;;;;;10.40;48.16;101439.56;3392551;29;20044;-77
2021/10/10 04:19:00;;;;;;;20.88;11.75;;;;;;;10.40;47.73;101444.91;3388927;29;20527;-75
2021/10/10 04:20:40;;;;;;;20.60;10.40;;;;;;;10.43;48.04;101441.09;3390190;29;20084;-75
2021/10/10 04:22:21;;;;;;;20.35;11.38;;;;;;;10.51;47.89;101437.66;3389969;29;20040;-74
2021/10/10 04:24:02;;;;;;;20.10;10.80;;;;;;;10.59;47.79;101437.75;3390265;29;20175;-75
2021/10/10 04:25:42;;;;;;;19.58;10.85;;;;;;;10.70;47.55;101435.69;3390012;29;20077;-76
2021/10/10 04:27:23;;;;;;;15.35;10.50;;;;;;;10.79;47.72;101441.97;3389909;29;20055;-74
2021/10/10 04:29:05;;;;;;;16.05;10.40;;;;;;;10.85;47.68;101435.16;3390156;29;20063;-75
2021/10/10 04:30:45;;;;;;;21.55;10.88;;;;;;;10.93;47.29;101445.06;3390056;29;20447;-75
2021/10/10 04:32:26;;;;;;;22.27;10.90;;;;;;;10.89;46.82;101445.38;3390279;29;20067;-75
2021/10/10 04:34:07;;;;;;;20.10;10.38;;;;;;;10.87;46.86;101447.38;3390170;29;20058;-75
2021/10/10 04:35:50;;;;;;;17.35;10.98;;;;;;;10.83;47.12;101445.16;3390064;29;20460;-77
2021/10/10 04:37:31;;;;;;;22.58;11.55;;;;;;;10.86;47.19;101442.16;3390169;29;20127;-75
2021/10/10 04:39:11;;;;;;;17.77;10.27;;;;;;;10.90;47.06;101444.38;3390308;29;20051;-77
2021/10/10 04:40:52;;;;;;;26.13;11.85;;;;;;;10.96;47.01;101439.44;3390405;29;20401;-76
2021/10/10 04:42:35;;;;;;;17.40;10.32;;;;;;;11.08;46.96;101444.38;3389091;29;20134;-77
2021/10/10 04:44:16;;;;;;;18.13;10.70;;;;;;;11.17;46.75;101441.75;3389903;29;20075;-76
2021/10/10 04:45:57;;;;;;;19.35;10.10;;;;;;;11.21;46.79;101443.97;3390263;29;20040;-76
2021/10/10 04:47:37;;;;;;;15.13;9.23;;;;;;;11.29;46.62;101441.34;3390201;29;20448;-76
2021/10/10 04:49:18;;;;;;;17.27;10.40;;;;;;;11.26;46.45;101446.19;3390111;29;20044;-76
2021/10/10 04:50:59;;;;;;;25.42;11.00;;;;;;;11.21;46.39;101445.81;3390064;29;20079;-74
2021/10/10 04:52:40;;;;;;;18.88;11.15;;;;;;;11.15;46.44;101439.22;3390087;29;20484;-76
2021/10/10 04:54:20;;;;;;;16.02;9.80;;;;;;;11.14;46.49;101442.91;3390299;29;20048;-76
2021/10/10 04:56:01;;;;;;;20.92;10.98;;;;;;;11.17;46.51;101447.94;3390110;29;20044;-77
2021/10/10 04:57:42;;;;;;;19.13;11.30;;;;;;;11.19;46.21;101450.44;3389256;29;20044;-76
2021/10/10 04:59:22;;;;;;;20.27;10.43;;;;;;;11.26;46.02;101452.34;3389538;29;20528;-77
2021/10/10 05:01:03;;;;;;;19.42;9.93;;;;;;;11.31;45.88;101452.72;3390060;29;20048;-76
2021/10/10 05:02:44;;;;;;;23.05;11.30;;;;;;;11.33;45.94;101457.88;3388531;29;20055;-77
2021/10/10 05:04:24;;;;;;;25.33;10.38;;;;;;;11.42;45.89;101454.28;3389430;29;20047;-76
2021/10/10 05:06:05;;;;;;;19.42;9.65;;;;;;;11.51;45.82;101460.50;3389824;29;20498;-76
2021/10/10 05:07:45;;;;;;;19.17;10.93;;;;;;;11.62;45.77;101454.94;3389195;29;20059;-75
2021/10/10 05:09:26;;;;;;;18.15;10.00;;;;;;;11.73;45.34;101449.31;3389565;29;20172;-72
2021/10/10 05:11:07;;;;;;;19.77;9.50;;;;;;;11.91;45.38;101456.44;3389507;29;20134;-76
2021/10/10 05:12:48;;;;;;;15.95;8.27;;;;;;;12.11;45.00;101452.53;3389608;29;20490;-76
2021/10/10 05:14:28;;;;;;;16.40;9.80;;;;;;;12.33;44.63;101458.28;3401860;29;20043;-74
2021/10/10 05:16:09;;;;;;;14.00;8.85;;;;;;;12.42;44.17;101449.28;3392291;29;20074;-74
2021/10/10 05:17:50;;;;;;;26.80;10.85;;;;;;;12.58;44.37;101459.19;3389545;29;20072;-75
2021/10/10 05:19:30;;;;;;;19.20;9.93;;;;;;;12.66;44.24;101452.00;3389533;29;20044;-79
2021/10/10 05:21:11;;;;;;;16.40;9.15;;;;;;;12.85;44.50;101450.84;3388426;29;20115;-76
2021/10/10 05:22:53;;;;;;;17.45;9.68;;;;;;;13.15;43.89;101459.22;3389245;29;20139;-77
2021/10/10 05:24:33;;;;;;;20.13;11.13;;;;;;;13.36;43.18;101460.59;3389860;29;20058;-80
2021/10/10 05:26:14;;;;;;;22.05;9.82;;;;;;;13.51;42.82;101457.03;3389540;29;20072;-79
2021/10/10 05:27:55;;;;;;;17.30;8.75;;;;;;;13.53;42.49;101451.53;3388656;29;20044;-79
2021/10/10 05:29:35;;;;;;;15.32;9.55;;;;;;;13.64;42.43;101461.88;3389619;29;20056;-78
2021/10/10 05:31:16;;;;;;;18.02;9.38;;;;;;;13.66;42.30;101465.22;3389369;29;20052;-79
2021/10/10 05:32:57;;;;;;;37.33;10.57;;;;;;;13.73;42.29;101460.00;3389722;29;20107;-78
2021/10/10 05:34:37;;;;;;;20.80;10.63;;;;;;;13.80;42.12;101461.00;3375457;29;20041;-79
2021/10/10 05:36:18;;;;;;;14.82;9.32;;;;;;;13.90;41.96;101461.63;3386690;29;20048;-80
2021/10/10 05:37:59;;;;;;;21.83;9.32;;;;;;;13.96;41.73;101460.97;3389561;29;20040;-79
2021/10/10 05:39:40;;;;;;;20.20;10.93;;;;;;;14.08;41.57;101463.25;3375318;29;20072;-78
2021/10/10 05:41:20;;;;;;;17.48;9.88;;;;;;;14.18;41.33;101455.84;3386400;29;20079;-77
2021/10/10 05:43:01;;;;;;;16.08;10.68;;;;;;;14.40;40.98;101468.47;3389236;29;20419;-79
2021/10/10 05:44:42;;;;;;;19.13;9.95;;;;;;;14.57;40.45;101469.25;3389545;29;20040;-79
2021/10/10 05:46:24;;;;;;;21.98;9.80;;;;;;;14.86;40.18;101470.38;3389490;29;20040;-75
2021/10/10 05:48:05;;;;;;;21.10;9.40;;;;;;;15.10;39.73;101472.06;3388721;29;20183;-75
2021/10/10 05:49:45;;;;;;;16.30;9.70;;;;;;;15.36;39.21;101468.13;3389208;29;20044;-76
2021/10/10 05:51:26;;;;;;;22.17;10.40;;;;;;;15.62;38.80;101468.56;3389206;29;20080;-76
2021/10/10 05:53:07;;;;;;;16.25;9.23;;;;;;;15.85;38.59;101468.50;3389376;29;20047;-76
2021/10/10 05:54:49;;;;;;;13.73;9.13;;;;;;;16.09;38.45;101455.78;3388928;29;20072;-76
2021/10/10 05:56:32;;;;;;;16.40;10.33;;;;;;;16.44;38.23;101470.28;3388133;29;20044;-74
2021/10/10 05:58:20;;;;;;;21.55;9.98;;;;;;;16.76;37.26;101470.84;3385528;29;20881;-77
2021/10/10 06:00:06;;;;;;;17.67;10.07;;;;;;;17.08;37.06;101463.31;3388770;29;20040;-76
2021/10/10 06:01:50;;;;;;;15.82;9.13;;;;;;;17.52;36.45;101463.03;3388922;29;20083;-77
2021/10/10 06:03:31;;;;;;;12.95;8.52;;;;;;;17.88;35.39;101476.34;3389012;29;20504;-76
2021/10/10 06:05:13;;;;;;;34.50;15.02;;;;;;;18.18;34.95;101469.88;3374808;29;20037;-76
2021/10/10 06:06:53;;;;;;;15.55;11.30;;;;;;;18.46;34.72;101473.31;3386092;29;20147;-75
2021/10/10 06:08:34;;;;;;;17.02;11.60;;;;;;;18.62;34.43;101468.59;3389123;29;20389;-76
2021/10/10 06:10:15;;;;;;;27.97;11.10;;;;;;;18.70;33.88;101469.22;3388674;29;20079;-77
2021/10/10 06:11:56;;;;;;;21.05;11.13;;;;;;;18.82;33.35;101472.19;3388861;29;21334;-77
2021/10/10 06:13:38;;;;;;;22.65;10.75;;;;;;;18.93;32.90;101482.38;3389163;29;20036;-78
2021/10/10 06:15:18;;;;;;;19.05;9.98;;;;;;;18.92;32.78;101471.75;3388804;29;20040;-79
2021/10/10 06:16:59;;;;;;;14.13;10.00;;;;;;;18.91;32.73;101472.81;3389069;29;20119;-79
2021/10/10 06:18:40;;;;;;;35.00;16.67;;;;;;;18.96;33.44;101476.56;3388173;29;20087;-76
2021/10/10 06:20:21;;;;;;;26.00;11.77;;;;;;;19.06;33.33;101468.06;3388238;29;20571;-76
2021/10/10 06:22:03;;;;;;;22.63;12.27;;;;;;;19.17;33.33;101475.53;3388965;29;20040;-81
2021/10/10 06:23:44;;;;;;;24.40;11.63;;;;;;;19.32;33.25;101472.63;3388737;29;20044;-75
2021/10/10 06:25:25;;;;;;;14.63;9.00;;;;;;;19.47;33.58;101469.72;3388967;29;20044;-81
2021/10/10 06:27:05;;;;;;;27.35;10.55;;;;;;;19.65;33.56;101462.84;3388058;29;20564;-77
2021/10/10 06:28:46;;;;;;;20.42;11.40;;;;;;;19.89;33.19;101473.00;3388356;29;20051;-75
2021/10/10 06:30:27;;;;;;;19.23;11.23;;;;;;;20.08;33.05;101468.53;3389003;29;20052;-73
2021/10/10 06:32:07;;;;;;;16.40;10.03;;;;;;;20.22;32.34;101463.94;3386245;29;20048;-73
2021/10/10 06:33:48;;;;;;;14.87;9.90;;;;;;;20.24;32.21;101464.56;3372530;29;20051;-77
2021/10/10 06:35:28;;;;;;;16.35;9.73;;;;;;;20.29;31.81;101469.31;3377877;29;20040;-75
2021/10/10 06:37:09;;;;;;;16.00;9.77;;;;;;;20.35;31.73;101463.88;3371927;29;20105;-76
2021/10/10 06:38:50;;;;;;;16.37;9.37;;;;;;;20.49;31.85;101460.03;3383259;29;20669;-76
2021/10/10 06:40:30;;;;;;;22.30;10.37;;;;;;;20.69;31.41;101459.94;3388709;29;20471;-76
2021/10/10 06:42:11;;;;;;;15.40;9.80;;;;;;;20.91;31.24;101456.91;3388994;29;20067;-75
2021/10/10 06:43:52;;;;;;;19.07;9.40;;;;;;;21.22;30.97;101463.31;3389146;29;20059;-76
2021/10/10 06:45:32;;;;;;;13.97;9.63;;;;;;;21.53;30.23;101460.56;3389015;29;20099;-75
2021/10/10 06:47:13;;;;;;;13.33;9.00;;;;;;;21.76;30.22;101451.78;3387342;29;20074;-75
2021/10/10 06:48:54;;;;;;;20.60;9.77;;;;;;;22.20;29.61;101455.25;3388939;29;20075;-74
2021/10/10 06:50:35;;;;;;;13.07;8.93;;;;;;;22.54;29.07;101458.34;3389102;29;20055;-76
2021/10/10 06:52:15;;;;;;;15.97;8.93;;;;;;;22.84;28.31;101457.50;3388907;29;20536;-75
2021/10/10 06:53:56;;;;;;;21.07;9.83;;;;;;;23.11;28.39;101462.56;3388744;29;20135;-76
2021/10/10 06:55:37;;;;;;;19.30;10.37;;;;;;;23.30;27.85;101464.09;3389578;29;20040;-75
2021/10/10 06:57:17;;;;;;;16.27;9.00;;;;;;;23.43;27.57;101461.16;3388523;29;20135;-75
2021/10/10 06:58:58;;;;;;;13.63;8.80;;;;;;;23.41;27.45;101454.28;3388524;29;20116;-74
2021/10/10 07:00:39;;;;;;;20.58;8.70;;;;;;;23.39;27.81;101457.25;3388671;29;20052;-76
2021/10/10 07:02:20;;;;;;;15.80;9.17;;;;;;;23.38;27.60;101463.75;3388888;29;20415;-74
2021/10/10 07:04:00;;;;;;;13.50;9.23;;;;;;;23.41;27.81;101457.81;3380333;29;20127;-75
2021/10/10 07:05:41;;;;;;;19.20;8.47;;;;;;;23.44;27.14;101457.38;3375668;29;20047;-76
2021/10/10 07:07:22;;;;;;;14.43;7.90;;;;;;;23.48;26.95;101455.81;3375002;29;20417;-76
2021/10/10 07:09:03;;;;;;;17.02;8.23;;;;;;;23.57;26.92;101466.34;3375392;29;20044;-75
2021/10/10 07:10:43;;;;;;;18.03;8.63;;;;;;;23.78;26.44;101460.34;3375325;29;20048;-77
2021/10/10 07:12:24;;;;;;;17.70;7.83;;;;;;;24.09;25.93;101458.25;3375407;29;20045;-74
2021/10/10 07:14:06;;;;;;;13.13;9.17;;;;;;;24.37;25.51;101458.28;3375495;29;20527;-75
2021/10/10 07:15:46;;;;;;;;;;;;;;;24.83;25.64;101457.50;3375788;29;20389;-75
2021/10/10 07:17:28;;;;;;;14.50;7.72;;;;;;;24.98;25.18;101455.03;3376292;29;19930;-77
2021/10/10 07:19:09;;;;;;;12.70;8.68;;;;;;;25.21;24.69;101443.16;3375986;29;20500;-76
2021/10/10 07:21:03;;;;;;;15.43;8.50;;;;;;;25.48;24.49;101453.38;3375154;29;20044;-76
2021/10/10 07:22:46;;;;;;;17.95;8.07;;;;;;;25.78;24.18;101452.97;3374636;29;20040;-76
2021/10/10 07:26:26;;;;;;;18.52;7.40;;;;;;;26.38;23.77;101443.06;3375595;29;20084;-76
2021/10/10 07:28:07;;;;;;;11.67;7.03;;;;;;;26.56;23.53;101433.69;3375614;29;20053;-77
2021/10/10 07:29:48;;;;;;;11.20;6.47;;;;;;;26.71;23.53;101433.84;3375404;29;20413;-75
2021/10/10 07:31:29;;;;;;;16.45;7.30;;;;;;;26.96;22.91;101441.44;3375754;29;20523;-81
2021/10/10 07:33:10;;;;;;;9.60;6.97;;;;;;;27.12;22.83;101439.66;3375617;29;20127;-79
2021/10/10 07:34:53;;;;;;;13.50;6.70;;;;;;;27.18;22.56;101427.69;3376484;29;20067;-80
2021/10/10 07:36:34;;;;;;;10.98;7.15;;;;;;;27.28;22.01;101433.22;3376583;29;20150;-78
2021/10/10 07:38:14;;;;;;;8.90;6.50;;;;;;;27.43;22.08;101440.72;3376092;29;20472;-77
2021/10/10 07:39:55;;;;;;;16.10;7.97;;;;;;;27.60;21.88;101433.16;3374718;29;20078;-75
2021/10/10 07:41:38;;;;;;;15.43;7.70;;;;;;;27.81;21.99;101436.84;3364680;29;20056;-73
2021/10/10 07:43:21;;;;;;;14.20;6.93;;;;;;;27.95;21.85;101419.91;3361940;29;20327;-75
2021/10/10 07:45:07;;;;;;;11.02;6.60;;;;;;;28.16;21.73;101410.63;3360775;29;20053;-75